Darstellungsparameter: Aktuell verwendete Einstellungen:
Skalierung der Graphiken ... ?
xyx+y,   Skalierungsfaktor:      Skalierung: Modus: x, Faktor: 1
Darstellungszeitraum ... ?
Vom - - bis: - -   Zeitraum: 02.03.2010 - 29.03.2010
Min/Max/Avg-Anzeige ... ?
Zeige MMA aktuell
Zeige MMA Monat
Zeige MMA alles
Zeige --A aktuell
Zeige --A Monat
Zeige --A alles
Keine MMA-Anzeige
MMA:
Average (ber die Originaldaten)
MMA-Basis: 23.02.2003 - 30.09.2020
Quicknavigation für Darstellung... ?
Tage:      1T, 2T, 3T, 5T -1T -2T -3T -5T +1T +2T +3T +5T
Wochen: 1W, 2W, 3W -1W -2W -3W +1W +2W +3W
Monate: 1M, 3M, 6M -1M -3M -6M +1M +3M +6M
Jahre:    1J, 3J, 5J, 10J -1J -3J -5J -10J +1J +3J +5J +10J
Nutze für die Darstellung ... ?
Originaldaten oder ...
Mittelwerte Minima Maxima auf...
Stundenbasis Tagesbasis Wochenbasis
Monatsbasis Jahresbasis      Datenbasis: Mittelwerte auf Stundenbasis
Darstellen als:
Statistik (Auto) Statistik J:M      Darstellung:
Zur Graphik,    zurück zur Übersicht aller Sensoren.
 
Tabellarische Datenbersicht: ?
 
Sensor: Nr:Datum:Temp:Abs-Feuchte:Windchill:Wind:
Aussen-T/F 1 02-03-2010 00:00:00 0.5 C 3.93 g/m*3 0.5 C 0 km/h
2 02-03-2010 01:00:00 0.12 C 3.96 g/m*3 0.12 C 0 km/h
3 02-03-2010 02:00:00 -0.28 C 3.93 g/m*3 -0.28 C 0 km/h
4 02-03-2010 03:00:00 -0.78 C 3.83 g/m*3 -0.78 C 0 km/h
5 02-03-2010 04:00:00 -1.28 C 3.74 g/m*3 -1.28 C 0 km/h
6 02-03-2010 05:00:00 -1.16 C 3.84 g/m*3 -1.16 C 0 km/h
7 02-03-2010 06:00:00 -1.78 C 3.66 g/m*3 -1.78 C 0 km/h
8 02-03-2010 07:00:00 -1.68 C 3.75 g/m*3 -1.68 C 0 km/h
9 02-03-2010 08:00:00 -0.7 C 4.06 g/m*3 -0.7 C 0 km/h
10 02-03-2010 09:00:00 -0.12 C 4.17 g/m*3 -0.12 C 0 km/h
11 02-03-2010 10:00:00 1.18 C 4.39 g/m*3 1.18 C 0 km/h
12 02-03-2010 11:00:00 3.58 C 4.54 g/m*3 3.58 C 0 km/h
13 02-03-2010 12:00:00 6.38 C 3.23 g/m*3 6.38 C 0 km/h
14 02-03-2010 13:00:00 9.1 C 2.72 g/m*3 9.1 C 0 km/h
15 02-03-2010 14:00:00 9.66 C 2.41 g/m*3 9.66 C 0 km/h
16 02-03-2010 15:00:00 10.04 C 2.37 g/m*3 10.04 C 0 km/h
17 02-03-2010 16:00:00 9 C 2.33 g/m*3 9 C 0 km/h
18 02-03-2010 17:00:00 8.44 C 2.82 g/m*3 8.44 C 0 km/h
19 02-03-2010 18:00:00 6.62 C 3.28 g/m*3 6.62 C 0 km/h
20 02-03-2010 19:00:00 5.84 C 3.36 g/m*3 5.84 C 0 km/h
21 02-03-2010 20:00:00 5.34 C 3.38 g/m*3 5.34 C 0 km/h
22 02-03-2010 21:00:00 3.38 C 4.22 g/m*3 3.38 C 0 km/h
23 02-03-2010 22:00:00 2.32 C 4.35 g/m*3 2.32 C 0 km/h
24 02-03-2010 23:00:00 1.52 C 4.23 g/m*3 1.52 C 0 km/h
25 03-03-2010 00:00:00 1.04 C 3.95 g/m*3 1.04 C 0 km/h
Sensor: Nr:Datum:Temp:Abs-Feuchte:Windchill:Wind:
Aussen-T/F 26 03-03-2010 01:00:00 0.32 C 3.7 g/m*3 0.32 C 0 km/h
27 03-03-2010 02:00:00 -0.32 C 3.76 g/m*3 -0.32 C 0 km/h
28 03-03-2010 03:00:00 -0.92 C 3.71 g/m*3 -0.92 C 0 km/h
29 03-03-2010 04:00:00 -1.4 C 3.67 g/m*3 -1.4 C 0 km/h
30 03-03-2010 05:00:00 -1.98 C 3.55 g/m*3 -1.98 C 0 km/h
31 03-03-2010 06:00:00 -1.52 C 3.77 g/m*3 -1.52 C 0 km/h
32 03-03-2010 07:00:00 -1.22 C 3.78 g/m*3 -1.22 C 0 km/h
33 03-03-2010 08:00:00 -0.9 C 3.86 g/m*3 -0.9 C 0 km/h
34 03-03-2010 09:00:00 1.02 C 3.91 g/m*3 1.02 C 0 km/h
35 03-03-2010 10:00:00 1.34 C 3.46 g/m*3 1.34 C 0 km/h
36 03-03-2010 11:00:00 2.86 C 3.4 g/m*3 2.86 C 0 km/h
37 03-03-2010 12:00:00 5.3 C 3.16 g/m*3 5.3 C 0 km/h
38 03-03-2010 13:00:00 8.26 C 2.47 g/m*3 8.26 C 0 km/h
39 03-03-2010 14:00:00 10.04 C 1.88 g/m*3 10.04 C 0 km/h
40 03-03-2010 15:00:00 10.84 C 1.98 g/m*3 10.84 C 0 km/h
41 03-03-2010 16:00:00 10.88 C 1.99 g/m*3 10.88 C 0 km/h
42 03-03-2010 17:00:00 7.88 C 1.8 g/m*3 7.88 C 0 km/h
43 03-03-2010 18:00:00 5.44 C 2.11 g/m*3 5.44 C 0 km/h
44 03-03-2010 19:00:00 4.24 C 2.24 g/m*3 4.24 C 0 km/h
45 03-03-2010 20:00:00 3.54 C 2.53 g/m*3 3.54 C 0 km/h
46 03-03-2010 21:00:00 2.98 C 2.67 g/m*3 2.98 C 0 km/h
47 03-03-2010 22:00:00 2.48 C 2.81 g/m*3 2.48 C 0 km/h
48 03-03-2010 23:00:00 1.62 C 2.91 g/m*3 1.62 C 0 km/h
49 04-03-2010 00:00:00 1.24 C 2.91 g/m*3 1.24 C 0 km/h
50 04-03-2010 01:00:00 1.16 C 2.89 g/m*3 1.16 C 0 km/h
Sensor: Nr:Datum:Temp:Abs-Feuchte:Windchill:Wind:
Aussen-T/F 51 04-03-2010 02:00:00 0.32 C 2.95 g/m*3 0.32 C 0 km/h
52 04-03-2010 03:00:00 -0.54 C 2.89 g/m*3 -0.54 C 0 km/h
53 04-03-2010 04:00:00 -0.76 C 2.91 g/m*3 -0.76 C 0 km/h
54 04-03-2010 05:00:00 -0.82 C 2.96 g/m*3 -0.82 C 0 km/h
55 04-03-2010 06:00:00 -1.24 C 2.96 g/m*3 -1.24 C 0 km/h
56 04-03-2010 07:00:00 -1.26 C 3.05 g/m*3 -1.26 C 0 km/h
57 04-03-2010 08:00:00 -1.06 C 3.12 g/m*3 -1.06 C 0 km/h
58 04-03-2010 09:00:00 0.3 C 3.27 g/m*3 0.3 C 0 km/h
59 04-03-2010 10:00:00 3.18 C 2.92 g/m*3 3.18 C 0 km/h
60 04-03-2010 11:00:00 4.24 C 2.29 g/m*3 4.24 C 0 km/h
61 04-03-2010 12:00:00 4.82 C 2.19 g/m*3 4.82 C 0 km/h
62 04-03-2010 13:00:00 6.84 C 1.63 g/m*3 6.84 C 0 km/h
63 04-03-2010 14:00:00 8.64 C 1.72 g/m*3 8.64 C 0 km/h
64 04-03-2010 15:00:00 8.96 C 1.76 g/m*3 8.96 C 0 km/h
65 04-03-2010 16:00:00 9.06 C 1.77 g/m*3 9.06 C 0 km/h
66 04-03-2010 17:00:00 7.18 C 1.57 g/m*3 7.18 C 0 km/h
67 04-03-2010 18:00:00 3.98 C 1.74 g/m*3 3.98 C 0 km/h
68 04-03-2010 19:00:00 2.26 C 2.23 g/m*3 2.26 C 0 km/h
69 04-03-2010 20:00:00 1.28 C 2.39 g/m*3 1.28 C 0 km/h
70 04-03-2010 21:00:00 0.86 C 2.55 g/m*3 0.86 C 0 km/h
71 04-03-2010 22:00:00 0.5 C 2.63 g/m*3 0.5 C 0 km/h
72 04-03-2010 23:00:00 -0.16 C 2.57 g/m*3 -0.16 C 0 km/h
73 05-03-2010 00:00:00 -0.74 C 2.49 g/m*3 -0.74 C 0 km/h
74 05-03-2010 01:00:00 -1.46 C 2.43 g/m*3 -1.46 C 0 km/h
75 05-03-2010 02:00:00 -1.5 C 2.27 g/m*3 -1.5 C 0 km/h
Sensor: Nr:Datum:Temp:Abs-Feuchte:Windchill:Wind:
Aussen-T/F 76 05-03-2010 03:00:00 -1.88 C 2.12 g/m*3 -1.88 C 0 km/h
77 05-03-2010 04:00:00 -2.22 C 2.21 g/m*3 -2.22 C 0 km/h
78 05-03-2010 05:00:00 -2.56 C 2.41 g/m*3 -2.56 C 0 km/h
79 05-03-2010 06:00:00 -2.34 C 2.65 g/m*3 -2.34 C 0 km/h
80 05-03-2010 07:00:00 -2.84 C 2.7 g/m*3 -2.84 C 0 km/h
81 05-03-2010 08:00:00 -2.74 C 2.77 g/m*3 -2.74 C 0 km/h
82 05-03-2010 09:00:00 -2 C 2.62 g/m*3 -2 C 0 km/h
83 05-03-2010 10:00:00 0.24 C 2.33 g/m*3 0.24 C 0 km/h
84 05-03-2010 11:00:00 2.14 C 1.74 g/m*3 2.14 C 0 km/h
85 05-03-2010 12:00:00 3.06 C 1.3 g/m*3 3.06 C 0 km/h
86 05-03-2010 13:00:00 3.34 C 1.28 g/m*3 3.34 C 0 km/h
87 05-03-2010 14:00:00 3.68 C 1.28 g/m*3 3.68 C 0 km/h
88 05-03-2010 15:00:00 5.2 C 1.46 g/m*3 5.2 C 0 km/h
89 05-03-2010 16:00:00 4.8 C 1.42 g/m*3 4.8 C 0 km/h
90 05-03-2010 17:00:00 4.14 C 1.51 g/m*3 4.14 C 0 km/h
91 05-03-2010 18:00:00 3.38 C 1.85 g/m*3 3.38 C 0 km/h
92 05-03-2010 19:00:00 2.8 C 2.49 g/m*3 2.8 C 0 km/h
93 05-03-2010 20:00:00 2.48 C 2.78 g/m*3 2.48 C 0 km/h
94 05-03-2010 21:00:00 2.06 C 3.17 g/m*3 2.06 C 0 km/h
95 05-03-2010 22:00:00 0.96 C 3.93 g/m*3 0.96 C 0 km/h
96 05-03-2010 23:00:00 0.64 C 4.21 g/m*3 0.64 C 0 km/h
97 06-03-2010 00:00:00 0.7 C 4.25 g/m*3 0.7 C 0 km/h
98 06-03-2010 01:00:00 0.5 C 4.4 g/m*3 0.5 C 0 km/h
99 06-03-2010 02:00:00 0.58 C 4.59 g/m*3 0.58 C 0 km/h
100 06-03-2010 03:00:00 0.2 C 4.55 g/m*3 0.2 C 0 km/h
Sensor: Nr:Datum:Temp:Abs-Feuchte:Windchill:Wind:
Aussen-T/F 101 06-03-2010 04:00:00 0 C 4.53 g/m*3 0 C 0 km/h
102 06-03-2010 05:00:00 -0.02 C 4.51 g/m*3 -0.02 C 0 km/h
103 06-03-2010 06:00:00 -0.16 C 4.29 g/m*3 -0.16 C 0 km/h
104 06-03-2010 07:00:00 -0.02 C 4.13 g/m*3 -0.02 C 0 km/h
105 06-03-2010 08:00:00 0.24 C 4.2 g/m*3 0.24 C 0 km/h
106 06-03-2010 09:00:00 0.38 C 4.05 g/m*3 0.38 C 0 km/h
107 06-03-2010 10:00:00 0.46 C 3.72 g/m*3 0.46 C 0 km/h
108 06-03-2010 11:00:00 0.42 C 3.49 g/m*3 0.42 C 0 km/h
109 06-03-2010 12:00:00 0.52 C 3.27 g/m*3 0.52 C 0 km/h
110 06-03-2010 13:00:00 0.74 C 3.19 g/m*3 0.74 C 0 km/h
111 06-03-2010 14:00:00 0.96 C 3.24 g/m*3 0.96 C 0 km/h
112 06-03-2010 15:00:00 1.36 C 2.83 g/m*3 1.36 C 0 km/h
113 06-03-2010 16:00:00 0.92 C 2.66 g/m*3 0.92 C 0 km/h
114 06-03-2010 17:00:00 -0.42 C 2.23 g/m*3 -0.42 C 0 km/h
115 06-03-2010 18:00:00 -1.7 C 2.06 g/m*3 -1.7 C 0 km/h
116 06-03-2010 19:00:00 -2.42 C 2.17 g/m*3 -2.42 C 0 km/h
117 06-03-2010 20:00:00 -3.12 C 2.21 g/m*3 -3.12 C 0 km/h
118 06-03-2010 21:00:00 -4.04 C 2.36 g/m*3 -4.04 C 0 km/h
119 06-03-2010 22:00:00 -3.92 C 2.52 g/m*3 -3.92 C 0 km/h
120 06-03-2010 23:00:00 -3.46 C 2.54 g/m*3 -3.46 C 0 km/h
121 07-03-2010 00:00:00 -4.48 C 2.41 g/m*3 -4.48 C 0 km/h
122 07-03-2010 01:00:00 -4.4 C 2.46 g/m*3 -4.4 C 0 km/h
123 07-03-2010 02:00:00 -4.46 C 2.49 g/m*3 -4.46 C 0 km/h
124 07-03-2010 03:00:00 -4.94 C 2.46 g/m*3 -4.94 C 0 km/h
125 07-03-2010 04:00:00 -4.9 C 2.54 g/m*3 -4.9 C 0 km/h
Sensor: Nr:Datum:Temp:Abs-Feuchte:Windchill:Wind:
Aussen-T/F 126 07-03-2010 05:00:00 -5.12 C 2.5 g/m*3 -5.12 C 0 km/h
127 07-03-2010 06:00:00 -5.82 C 2.41 g/m*3 -5.82 C 0 km/h
128 07-03-2010 07:00:00 -6.22 C 2.39 g/m*3 -6.22 C 0 km/h
129 07-03-2010 08:00:00 -6.02 C 2.42 g/m*3 -6.02 C 0 km/h
130 07-03-2010 09:00:00 -4.04 C 2.63 g/m*3 -4.04 C 0 km/h
131 07-03-2010 10:00:00 -1.28 C 2.45 g/m*3 -1.28 C 0 km/h
132 07-03-2010 11:00:00 -0.44 C 2.27 g/m*3 -0.44 C 0 km/h
133 07-03-2010 12:00:00 0.52 C 2.26 g/m*3 0.52 C 0 km/h
134 07-03-2010 13:00:00 2.2 C 2.12 g/m*3 2.2 C 0 km/h
135 07-03-2010 14:00:00 3.52 C 1.91 g/m*3 3.52 C 0 km/h
136 07-03-2010 15:00:00 4.6 C 1.4 g/m*3 4.6 C 0 km/h
137 07-03-2010 16:00:00 5.56 C 1.41 g/m*3 5.56 C 0 km/h
138 07-03-2010 17:00:00 4.92 C 1.35 g/m*3 4.92 C 0 km/h
139 07-03-2010 18:00:00 1.5 C 1.63 g/m*3 1.5 C 0 km/h
140 07-03-2010 19:00:00 -0.62 C 1.81 g/m*3 -0.62 C 0 km/h
141 07-03-2010 20:00:00 -1.7 C 1.92 g/m*3 -1.7 C 0 km/h
142 07-03-2010 21:00:00 -2.44 C 1.94 g/m*3 -2.44 C 0 km/h
143 07-03-2010 22:00:00 -2.88 C 1.84 g/m*3 -2.88 C 0 km/h
144 07-03-2010 23:00:00 -3.44 C 1.88 g/m*3 -3.44 C 0 km/h
145 08-03-2010 00:00:00 -4.18 C 1.8 g/m*3 -4.18 C 0 km/h
146 08-03-2010 01:00:00 -4.64 C 1.74 g/m*3 -4.64 C 0 km/h
147 08-03-2010 02:00:00 -4.92 C 1.63 g/m*3 -4.92 C 0 km/h
148 08-03-2010 03:00:00 -5.76 C 1.71 g/m*3 -5.76 C 0 km/h
149 08-03-2010 04:00:00 -6.32 C 1.73 g/m*3 -6.32 C 0 km/h
150 08-03-2010 05:00:00 -6.92 C 1.74 g/m*3 -6.92 C 0 km/h
Sensor: Nr:Datum:Temp:Abs-Feuchte:Windchill:Wind:
Aussen-T/F 151 08-03-2010 06:00:00 -7.3 C 1.79 g/m*3 -7.3 C 0 km/h
152 08-03-2010 07:00:00 -7.14 C 1.91 g/m*3 -7.14 C 0 km/h
153 08-03-2010 08:00:00 -5.34 C 2.1 g/m*3 -5.34 C 0 km/h
154 08-03-2010 09:00:00 -3.12 C 2.07 g/m*3 -3.12 C 0 km/h
155 08-03-2010 10:00:00 -0.64 C 1.94 g/m*3 -0.64 C 0 km/h
156 08-03-2010 11:00:00 1.44 C 1.79 g/m*3 1.44 C 0 km/h
157 08-03-2010 12:00:00 3.1 C 1.57 g/m*3 3.1 C 0 km/h
158 08-03-2010 13:00:00 4.22 C 1.43 g/m*3 4.22 C 0 km/h
159 08-03-2010 14:00:00 4.12 C 1.36 g/m*3 4.12 C 0 km/h
160 08-03-2010 15:00:00 5.48 C 1.4 g/m*3 5.48 C 0 km/h
161 08-03-2010 16:00:00 6.62 C 1.51 g/m*3 6.62 C 0 km/h
162 08-03-2010 17:00:00 5.42 C 1.4 g/m*3 5.42 C 0 km/h
163 08-03-2010 18:00:00 2.1 C 1.8 g/m*3 2.1 C 0 km/h
164 08-03-2010 19:00:00 -0.06 C 2.07 g/m*3 -0.06 C 0 km/h
165 08-03-2010 20:00:00 -1 C 2.09 g/m*3 -1 C 0 km/h
166 08-03-2010 21:00:00 -1.34 C 2.23 g/m*3 -1.34 C 0 km/h
167 08-03-2010 22:00:00 -1.08 C 2.22 g/m*3 -1.08 C 0 km/h
168 08-03-2010 23:00:00 -1.8 C 2.07 g/m*3 -1.8 C 0 km/h
169 09-03-2010 00:00:00 -2.34 C 2.12 g/m*3 -2.34 C 0 km/h
170 09-03-2010 01:00:00 -3.08 C 2.2 g/m*3 -3.08 C 0 km/h
171 09-03-2010 02:00:00 -3.38 C 2.22 g/m*3 -3.38 C 0 km/h
172 09-03-2010 03:00:00 -3.9 C 2.25 g/m*3 -3.9 C 0 km/h
173 09-03-2010 04:00:00 -4.4 C 2.23 g/m*3 -4.4 C 0 km/h
174 09-03-2010 05:00:00 -4.78 C 2.16 g/m*3 -4.78 C 0 km/h
175 09-03-2010 06:00:00 -5 C 2.11 g/m*3 -5 C 0 km/h
Sensor: Nr:Datum:Temp:Abs-Feuchte:Windchill:Wind:
Aussen-T/F 176 09-03-2010 07:00:00 -5.44 C 2.12 g/m*3 -5.44 C 0 km/h
177 09-03-2010 08:00:00 -4.92 C 2.16 g/m*3 -4.92 C 0 km/h
178 09-03-2010 09:00:00 -3.74 C 2.17 g/m*3 -3.74 C 0 km/h
179 09-03-2010 10:00:00 -1.32 C 2.01 g/m*3 -1.32 C 0 km/h
180 09-03-2010 11:00:00 0.4 C 1.49 g/m*3 0.4 C 0 km/h
181 09-03-2010 12:00:00 1.58 C 1.1 g/m*3 1.58 C 0 km/h
182 09-03-2010 13:00:00 3.1 C 1.2 g/m*3 3.1 C 0 km/h
183 09-03-2010 14:00:00 4.86 C 1.35 g/m*3 4.86 C 0 km/h
184 09-03-2010 15:00:00 5.86 C 1.44 g/m*3 5.86 C 0 km/h
185 09-03-2010 16:00:00 6.1 C 1.46 g/m*3 6.1 C 0 km/h
186 09-03-2010 17:00:00 4.78 C 1.34 g/m*3 4.78 C 0 km/h
187 09-03-2010 18:00:00 1.78 C 1.09 g/m*3 1.78 C 0 km/h
188 09-03-2010 19:00:00 -0.06 C 0.97 g/m*3 -0.06 C 0 km/h
189 09-03-2010 20:00:00 -1.1 C 0.91 g/m*3 -1.1 C 0 km/h
190 09-03-2010 21:00:00 -1.8 C 0.86 g/m*3 -1.8 C 0 km/h
191 09-03-2010 22:00:00 -1.76 C 0.87 g/m*3 -1.76 C 0 km/h
192 09-03-2010 23:00:00 -2.36 C 1.27 g/m*3 -2.36 C 0 km/h
193 10-03-2010 00:00:00 -2.7 C 1.56 g/m*3 -2.7 C 0 km/h
194 10-03-2010 01:00:00 -3.14 C 1.7 g/m*3 -3.14 C 0 km/h
195 10-03-2010 02:00:00 -3.62 C 1.77 g/m*3 -3.62 C 0 km/h
196 10-03-2010 03:00:00 -3.86 C 1.79 g/m*3 -3.86 C 0 km/h
197 10-03-2010 04:00:00 -3.52 C 1.76 g/m*3 -3.52 C 0 km/h
198 10-03-2010 05:00:00 -3.5 C 1.7 g/m*3 -3.5 C 0 km/h
199 10-03-2010 06:00:00 -3.72 C 1.68 g/m*3 -3.72 C 0 km/h
200 10-03-2010 07:00:00 -3.46 C 1.7 g/m*3 -3.46 C 0 km/h
Sensor: Nr:Datum:Temp:Abs-Feuchte:Windchill:Wind:
Aussen-T/F 201 10-03-2010 08:00:00 -2.08 C 1.63 g/m*3 -2.08 C 0 km/h
202 10-03-2010 09:00:00 -0.36 C 1.25 g/m*3 -0.36 C 0 km/h
203 10-03-2010 10:00:00 1.88 C 1.1 g/m*3 1.88 C 0 km/h
204 10-03-2010 11:00:00 3.84 C 1.32 g/m*3 3.84 C 0 km/h
205 10-03-2010 12:00:00 5.6 C 1.51 g/m*3 5.6 C 0 km/h
206 10-03-2010 13:00:00 7.32 C 1.58 g/m*3 7.32 C 0 km/h
207 10-03-2010 14:00:00 8.28 C 1.68 g/m*3 8.28 C 0 km/h
208 10-03-2010 15:00:00 8.78 C 1.74 g/m*3 8.78 C 0 km/h
209 10-03-2010 16:00:00 7.86 C 1.64 g/m*3 7.86 C 0 km/h
210 10-03-2010 17:00:00 6.26 C 1.48 g/m*3 6.26 C 0 km/h
211 10-03-2010 18:00:00 4.5 C 1.6 g/m*3 4.5 C 0 km/h
212 10-03-2010 19:00:00 3.22 C 1.79 g/m*3 3.22 C 0 km/h
213 10-03-2010 20:00:00 2.42 C 1.8 g/m*3 2.42 C 0 km/h
214 10-03-2010 21:00:00 1.94 C 1.86 g/m*3 1.94 C 0 km/h
215 10-03-2010 22:00:00 1.44 C 2.02 g/m*3 1.44 C 0 km/h
216 10-03-2010 23:00:00 0.62 C 2.19 g/m*3 0.62 C 0 km/h
217 11-03-2010 00:00:00 -0.12 C 2.31 g/m*3 -0.12 C 0 km/h
218 11-03-2010 01:00:00 -0.74 C 2.29 g/m*3 -0.74 C 0 km/h
219 11-03-2010 02:00:00 -1.22 C 2.31 g/m*3 -1.22 C 0 km/h
220 11-03-2010 03:00:00 -1.68 C 2.32 g/m*3 -1.68 C 0 km/h
221 11-03-2010 04:00:00 -2.12 C 2.31 g/m*3 -2.12 C 0 km/h
222 11-03-2010 05:00:00 -2.88 C 2.31 g/m*3 -2.88 C 0 km/h
223 11-03-2010 06:00:00 -2.78 C 2.39 g/m*3 -2.78 C 0 km/h
224 11-03-2010 07:00:00 -2.9 C 2.48 g/m*3 -2.9 C 0 km/h
225 11-03-2010 08:00:00 -1.7 C 2.55 g/m*3 -1.7 C 0 km/h
Sensor: Nr:Datum:Temp:Abs-Feuchte:Windchill:Wind:
Aussen-T/F 226 11-03-2010 09:00:00 -0.36 C 2.42 g/m*3 -0.36 C 0 km/h
227 11-03-2010 10:00:00 0.36 C 2.36 g/m*3 0.36 C 0 km/h
228 11-03-2010 11:00:00 1.6 C 2.28 g/m*3 1.6 C 0 km/h
229 11-03-2010 12:00:00 3.12 C 2.07 g/m*3 3.12 C 0 km/h
230 11-03-2010 13:00:00 5.18 C 1.8 g/m*3 5.18 C 0 km/h
231 11-03-2010 14:00:00 6.34 C 2.02 g/m*3 6.34 C 0 km/h
232 11-03-2010 15:00:00 5.18 C 2.54 g/m*3 5.18 C 0 km/h
233 11-03-2010 16:00:00 4.4 C 2.68 g/m*3 4.4 C 0 km/h
234 11-03-2010 17:00:00 3.12 C 2.78 g/m*3 3.12 C 0 km/h
235 11-03-2010 18:00:00 1.28 C 2.86 g/m*3 1.28 C 0 km/h
236 11-03-2010 19:00:00 0.22 C 2.92 g/m*3 0.22 C 0 km/h
237 11-03-2010 20:00:00 -0.34 C 2.93 g/m*3 -0.34 C 0 km/h
238 11-03-2010 21:00:00 -0.94 C 2.96 g/m*3 -0.94 C 0 km/h
239 11-03-2010 22:00:00 -1.32 C 3.04 g/m*3 -1.32 C 0 km/h
240 11-03-2010 23:00:00 -2.06 C 2.96 g/m*3 -2.06 C 0 km/h
241 12-03-2010 00:00:00 -2.58 C 2.9 g/m*3 -2.58 C 0 km/h
242 12-03-2010 01:00:00 -1.54 C 3.06 g/m*3 -1.54 C 0 km/h
243 12-03-2010 02:00:00 -1.32 C 3.09 g/m*3 -1.32 C 0 km/h
244 12-03-2010 03:00:00 -1.26 C 3.13 g/m*3 -1.26 C 0 km/h
245 12-03-2010 04:00:00 -1.3 C 3.14 g/m*3 -1.3 C 0 km/h
246 12-03-2010 05:00:00 -1.16 C 3.21 g/m*3 -1.16 C 0 km/h
247 12-03-2010 06:00:00 -0.98 C 3.31 g/m*3 -0.98 C 0 km/h
248 12-03-2010 07:00:00 -0.9 C 3.51 g/m*3 -0.9 C 0 km/h
249 12-03-2010 08:00:00 -0.54 C 3.74 g/m*3 -0.54 C 0 km/h
250 12-03-2010 09:00:00 -0.02 C 3.99 g/m*3 -0.02 C 0 km/h
Sensor: Nr:Datum:Temp:Abs-Feuchte:Windchill:Wind:
Aussen-T/F 251 12-03-2010 10:00:00 0.96 C 4.12 g/m*3 0.96 C 0 km/h
252 12-03-2010 11:00:00 2.28 C 4.12 g/m*3 2.28 C 0 km/h
253 12-03-2010 12:00:00 3.4 C 4.24 g/m*3 3.4 C 0 km/h
254 12-03-2010 13:00:00 4.72 C 4.26 g/m*3 4.72 C 0 km/h
255 12-03-2010 14:00:00 5.28 C 4.11 g/m*3 5.28 C 0 km/h
256 12-03-2010 15:00:00 6.96 C 3.99 g/m*3 6.96 C 0 km/h
257 12-03-2010 16:00:00 5.12 C 4.29 g/m*3 5.12 C 0 km/h
258 12-03-2010 17:00:00 4.62 C 4.29 g/m*3 4.62 C 0 km/h
259 12-03-2010 18:00:00 3.46 C 4.33 g/m*3 3.46 C 0 km/h
260 12-03-2010 19:00:00 2.88 C 4.39 g/m*3 2.88 C 0 km/h
261 12-03-2010 20:00:00 3.08 C 4.42 g/m*3 3.08 C 0 km/h
262 12-03-2010 21:00:00 2.72 C 4.42 g/m*3 2.72 C 0 km/h
263 12-03-2010 22:00:00 2.48 C 4.43 g/m*3 2.48 C 0 km/h
264 12-03-2010 23:00:00 2.32 C 4.45 g/m*3 2.32 C 0 km/h
265 13-03-2010 00:00:00 2.28 C 4.47 g/m*3 2.28 C 0 km/h
266 13-03-2010 01:00:00 2.22 C 4.41 g/m*3 2.22 C 0 km/h
267 13-03-2010 02:00:00 2.16 C 4.31 g/m*3 2.16 C 0 km/h
268 13-03-2010 03:00:00 2.08 C 4.21 g/m*3 2.08 C 0 km/h
269 13-03-2010 04:00:00 1.98 C 4.17 g/m*3 1.98 C 0 km/h
270 13-03-2010 05:00:00 1.94 C 4.15 g/m*3 1.94 C 0 km/h
271 13-03-2010 06:00:00 2.14 C 4.12 g/m*3 2.14 C 0 km/h
272 13-03-2010 07:00:00 2.38 C 4.39 g/m*3 2.38 C 0 km/h
273 13-03-2010 08:00:00 2.96 C 4.71 g/m*3 2.96 C 0 km/h
274 13-03-2010 09:00:00 3.54 C 4.7 g/m*3 3.54 C 0 km/h
275 13-03-2010 10:00:00 4.6 C 4.61 g/m*3 4.6 C 0 km/h
Sensor: Nr:Datum:Temp:Abs-Feuchte:Windchill:Wind:
Aussen-T/F 276 13-03-2010 11:00:00 5.2 C 4.23 g/m*3 5.2 C 0 km/h
277 13-03-2010 12:00:00 6.3 C 3.8 g/m*3 6.3 C 0 km/h
278 13-03-2010 13:00:00 6 C 3.9 g/m*3 6 C 0 km/h
279 13-03-2010 14:00:00 6.24 C 4.03 g/m*3 6.24 C 0 km/h
280 13-03-2010 15:00:00 6.56 C 3.96 g/m*3 6.56 C 0 km/h
281 13-03-2010 16:00:00 6.48 C 3.91 g/m*3 6.48 C 0 km/h
282 13-03-2010 17:00:00 6.28 C 3.96 g/m*3 6.28 C 0 km/h
283 13-03-2010 18:00:00 6.1 C 3.95 g/m*3 6.1 C 0 km/h
284 13-03-2010 19:00:00 6 C 3.98 g/m*3 6 C 0 km/h
285 13-03-2010 20:00:00 5.64 C 4.3 g/m*3 5.64 C 0 km/h
286 13-03-2010 21:00:00 5.52 C 4.22 g/m*3 5.52 C 0 km/h
287 13-03-2010 22:00:00 5.14 C 4.05 g/m*3 5.14 C 0 km/h
288 13-03-2010 23:00:00 5.04 C 3.65 g/m*3 5.04 C 0 km/h
289 14-03-2010 00:00:00 4.7 C 3.6 g/m*3 4.7 C 0 km/h
290 14-03-2010 01:00:00 4.42 C 3.69 g/m*3 4.42 C 0 km/h
291 14-03-2010 02:00:00 4.28 C 3.81 g/m*3 4.28 C 0 km/h
292 14-03-2010 03:00:00 4.36 C 3.87 g/m*3 4.36 C 0 km/h
293 14-03-2010 04:00:00 4.4 C 3.9 g/m*3 4.4 C 0 km/h
294 14-03-2010 05:00:00 4.26 C 4.01 g/m*3 4.26 C 0 km/h
295 14-03-2010 06:00:00 4.22 C 4.01 g/m*3 4.22 C 0 km/h
296 14-03-2010 07:00:00 4.48 C 4.03 g/m*3 4.48 C 0 km/h
297 14-03-2010 08:00:00 5.12 C 3.86 g/m*3 5.12 C 0 km/h
298 14-03-2010 09:00:00 5.84 C 3.76 g/m*3 5.84 C 0 km/h
299 14-03-2010 10:00:00 6.7 C 3.74 g/m*3 6.7 C 0 km/h
300 14-03-2010 11:00:00 7.44 C 3.7 g/m*3 7.44 C 0 km/h
Sensor: Nr:Datum:Temp:Abs-Feuchte:Windchill:Wind:
Aussen-T/F 301 14-03-2010 12:00:00 7.7 C 3.52 g/m*3 7.7 C 0 km/h
302 14-03-2010 13:00:00 7.6 C 3.72 g/m*3 7.6 C 0 km/h
303 14-03-2010 14:00:00 7.42 C 3.81 g/m*3 7.42 C 0 km/h
304 14-03-2010 15:00:00 7.74 C 3.9 g/m*3 7.74 C 0 km/h
305 14-03-2010 16:00:00 7.1 C 4.13 g/m*3 7.1 C 0 km/h
306 14-03-2010 17:00:00 6.58 C 4.28 g/m*3 6.58 C 0 km/h
307 14-03-2010 18:00:00 5.92 C 4.66 g/m*3 5.92 C 0 km/h
308 14-03-2010 19:00:00 5.58 C 4.97 g/m*3 5.58 C 0 km/h
309 14-03-2010 20:00:00 5.72 C 4.77 g/m*3 5.72 C 0 km/h
310 14-03-2010 21:00:00 5.78 C 4.44 g/m*3 5.78 C 0 km/h
311 14-03-2010 22:00:00 5.86 C 4.31 g/m*3 5.86 C 0 km/h
312 14-03-2010 23:00:00 5.94 C 4.58 g/m*3 5.94 C 0 km/h
313 15-03-2010 00:00:00 5.82 C 4.75 g/m*3 5.82 C 0 km/h
314 15-03-2010 01:00:00 5.74 C 4.71 g/m*3 5.74 C 0 km/h
315 15-03-2010 02:00:00 5 C 4.92 g/m*3 5 C 0 km/h
316 15-03-2010 03:00:00 4.88 C 4.73 g/m*3 4.88 C 0 km/h
317 15-03-2010 04:00:00 4.62 C 4.61 g/m*3 4.62 C 0 km/h
318 15-03-2010 05:00:00 4.64 C 4.43 g/m*3 4.64 C 0 km/h
319 15-03-2010 06:00:00 4.66 C 4.21 g/m*3 4.66 C 0 km/h
320 15-03-2010 07:00:00 3.88 C 4.79 g/m*3 3.88 C 0 km/h
321 15-03-2010 08:00:00 3.9 C 5.34 g/m*3 3.9 C 0 km/h
322 15-03-2010 09:00:00 4.42 C 5.54 g/m*3 4.42 C 0 km/h
323 15-03-2010 10:00:00 5.14 C 5.53 g/m*3 5.14 C 0 km/h
324 15-03-2010 11:00:00 5.94 C 5.06 g/m*3 5.94 C 0 km/h
325 15-03-2010 12:00:00 7.26 C 4.9 g/m*3 7.26 C 0 km/h
Sensor: Nr:Datum:Temp:Abs-Feuchte:Windchill:Wind:
Aussen-T/F 326 15-03-2010 13:00:00 9.46 C 4.56 g/m*3 9.46 C 0 km/h
327 15-03-2010 14:00:00 10.26 C 4.09 g/m*3 10.26 C 0 km/h
328 15-03-2010 15:00:00 10.48 C 4.05 g/m*3 10.48 C 0 km/h
329 15-03-2010 16:00:00 9.86 C 4.28 g/m*3 9.86 C 0 km/h
330 15-03-2010 17:00:00 8.78 C 4.8 g/m*3 8.78 C 0 km/h
331 15-03-2010 18:00:00 8.02 C 5.17 g/m*3 8.02 C 0 km/h
332 15-03-2010 19:00:00 7.16 C 5.46 g/m*3 7.16 C 0 km/h
333 15-03-2010 20:00:00 6.8 C 5.67 g/m*3 6.8 C 0 km/h
334 15-03-2010 21:00:00 6.48 C 5.68 g/m*3 6.48 C 0 km/h
335 15-03-2010 22:00:00 5.94 C 5.87 g/m*3 5.94 C 0 km/h
336 15-03-2010 23:00:00 5.54 C 6.08 g/m*3 5.54 C 0 km/h
337 16-03-2010 00:00:00 5.28 C 6.12 g/m*3 5.28 C 0 km/h
338 16-03-2010 01:00:00 5 C 6.03 g/m*3 5 C 0 km/h
339 16-03-2010 02:00:00 4.9 C 6.06 g/m*3 4.9 C 0 km/h
340 16-03-2010 03:00:00 4.78 C 6.01 g/m*3 4.78 C 0 km/h
341 16-03-2010 04:00:00 4.76 C 6.09 g/m*3 4.76 C 0 km/h
342 16-03-2010 05:00:00 4.66 C 6.07 g/m*3 4.66 C 0 km/h
343 16-03-2010 06:00:00 4.64 C 6.01 g/m*3 4.64 C 0 km/h
344 16-03-2010 07:00:00 4.88 C 6.15 g/m*3 4.88 C 0 km/h
345 16-03-2010 08:00:00 5.24 C 6.25 g/m*3 5.24 C 0 km/h
346 16-03-2010 09:00:00 6.22 C 6.35 g/m*3 6.22 C 0 km/h
347 16-03-2010 10:00:00 6.8 C 5.83 g/m*3 6.8 C 0 km/h
348 16-03-2010 11:00:00 7.98 C 5.38 g/m*3 7.98 C 0 km/h
349 16-03-2010 12:00:00 8.34 C 5.26 g/m*3 8.34 C 0 km/h
350 16-03-2010 13:00:00 8.16 C 5.21 g/m*3 8.16 C 0 km/h
Sensor: Nr:Datum:Temp:Abs-Feuchte:Windchill:Wind:
Aussen-T/F 351 16-03-2010 14:00:00 8.36 C 5.11 g/m*3 8.36 C 0 km/h
352 16-03-2010 15:00:00 8.6 C 4.93 g/m*3 8.6 C 0 km/h
353 16-03-2010 16:00:00 8.66 C 4.81 g/m*3 8.66 C 0 km/h
354 16-03-2010 17:00:00 8.66 C 5 g/m*3 8.66 C 0 km/h
355 16-03-2010 18:00:00 7.76 C 5.45 g/m*3 7.76 C 0 km/h
356 16-03-2010 19:00:00 6.88 C 5.55 g/m*3 6.88 C 0 km/h
357 16-03-2010 20:00:00 5.34 C 5.25 g/m*3 5.34 C 0 km/h
358 16-03-2010 21:00:00 4.1 C 5.04 g/m*3 4.1 C 0 km/h
359 16-03-2010 22:00:00 3.18 C 4.9 g/m*3 3.18 C 0 km/h
360 16-03-2010 23:00:00 2.36 C 4.7 g/m*3 2.36 C 0 km/h
361 17-03-2010 00:00:00 2.22 C 4.75 g/m*3 2.22 C 0 km/h
362 17-03-2010 01:00:00 1.94 C 4.66 g/m*3 1.94 C 0 km/h
363 17-03-2010 02:00:00 2.06 C 4.64 g/m*3 2.06 C 0 km/h
364 17-03-2010 03:00:00 2.08 C 4.58 g/m*3 2.08 C 0 km/h
365 17-03-2010 04:00:00 1.62 C 4.46 g/m*3 1.62 C 0 km/h
366 17-03-2010 05:00:00 0.8 C 4.33 g/m*3 0.8 C 0 km/h
367 17-03-2010 06:00:00 0.54 C 4.36 g/m*3 0.54 C 0 km/h
368 17-03-2010 07:00:00 0.92 C 4.53 g/m*3 0.92 C 0 km/h
369 17-03-2010 08:00:00 2.06 C 4.75 g/m*3 2.06 C 0 km/h
370 17-03-2010 09:00:00 4 C 4.6 g/m*3 4 C 0 km/h
371 17-03-2010 10:00:00 6.16 C 4.33 g/m*3 6.16 C 0 km/h
372 17-03-2010 11:00:00 8.54 C 3.9 g/m*3 8.54 C 0 km/h
373 17-03-2010 12:00:00 10.54 C 3.77 g/m*3 10.54 C 0 km/h
374 17-03-2010 13:00:00 12.62 C 3.48 g/m*3 12.62 C 0 km/h
375 17-03-2010 14:00:00 13.64 C 2.95 g/m*3 13.64 C 0 km/h
Sensor: Nr:Datum:Temp:Abs-Feuchte:Windchill:Wind:
Aussen-T/F 376 17-03-2010 15:00:00 14.5 C 3.13 g/m*3 14.5 C 0 km/h
377 17-03-2010 16:00:00 13.94 C 3.05 g/m*3 13.94 C 0 km/h
378 17-03-2010 17:00:00 13.28 C 3.3 g/m*3 13.28 C 0 km/h
379 17-03-2010 18:00:00 11.22 C 3.76 g/m*3 11.22 C 0 km/h
380 17-03-2010 19:00:00 9.46 C 3.99 g/m*3 9.46 C 0 km/h
381 17-03-2010 20:00:00 8.2 C 4.19 g/m*3 8.2 C 0 km/h
382 17-03-2010 21:00:00 7.2 C 4.33 g/m*3 7.2 C 0 km/h
383 17-03-2010 22:00:00 6.88 C 4.32 g/m*3 6.88 C 0 km/h
384 17-03-2010 23:00:00 6.24 C 4.42 g/m*3 6.24 C 0 km/h
385 18-03-2010 00:00:00 5.88 C 4.41 g/m*3 5.88 C 0 km/h
386 18-03-2010 01:00:00 5.5 C 4.4 g/m*3 5.5 C 0 km/h
387 18-03-2010 02:00:00 5.1 C 4.38 g/m*3 5.1 C 0 km/h
388 18-03-2010 03:00:00 3.94 C 4.37 g/m*3 3.94 C 0 km/h
389 18-03-2010 04:00:00 3.42 C 4.37 g/m*3 3.42 C 0 km/h
390 18-03-2010 05:00:00 2.54 C 4.27 g/m*3 2.54 C 0 km/h
391 18-03-2010 06:00:00 1.92 C 4.21 g/m*3 1.92 C 0 km/h
392 18-03-2010 07:00:00 1.92 C 4.3 g/m*3 1.92 C 0 km/h
393 18-03-2010 08:00:00 3.18 C 4.55 g/m*3 3.18 C 0 km/h
394 18-03-2010 09:00:00 5.42 C 4.4 g/m*3 5.42 C 0 km/h
395 18-03-2010 10:00:00 7.82 C 4.4 g/m*3 7.82 C 0 km/h
396 18-03-2010 11:00:00 10.76 C 4.36 g/m*3 10.76 C 0 km/h
397 18-03-2010 12:00:00 14.26 C 4.22 g/m*3 14.26 C 0 km/h
398 18-03-2010 13:00:00 18.04 C 3.42 g/m*3 18.04 C 0 km/h
399 18-03-2010 14:00:00 19.22 C 3.3 g/m*3 19.22 C 0 km/h
400 18-03-2010 15:00:00 20.36 C 3.53 g/m*3 20.36 C 0 km/h
Sensor: Nr:Datum:Temp:Abs-Feuchte:Windchill:Wind:
Aussen-T/F 401 18-03-2010 16:00:00 19.82 C 3.42 g/m*3 19.82 C 0 km/h
402 18-03-2010 17:00:00 17.98 C 3.59 g/m*3 17.98 C 0 km/h
403 18-03-2010 18:00:00 15.4 C 4.05 g/m*3 15.4 C 0 km/h
404 18-03-2010 19:00:00 13.54 C 4.1 g/m*3 13.54 C 0 km/h
405 18-03-2010 20:00:00 12.92 C 3.99 g/m*3 12.92 C 0 km/h
406 18-03-2010 21:00:00 12.22 C 3.89 g/m*3 12.22 C 0 km/h
407 18-03-2010 22:00:00 11.24 C 4 g/m*3 11.24 C 0 km/h
408 18-03-2010 23:00:00 10.56 C 3.95 g/m*3 10.56 C 0 km/h
409 19-03-2010 00:00:00 9.92 C 4.02 g/m*3 9.92 C 0 km/h
410 19-03-2010 01:00:00 11.3 C 3.37 g/m*3 11.3 C 0 km/h
411 19-03-2010 02:00:00 11.5 C 3.33 g/m*3 11.5 C 0 km/h
412 19-03-2010 03:00:00 11.96 C 3.23 g/m*3 11.96 C 0 km/h
413 19-03-2010 04:00:00 11.92 C 3.31 g/m*3 11.92 C 0 km/h
414 19-03-2010 05:00:00 11.38 C 3.57 g/m*3 11.38 C 0 km/h
415 19-03-2010 06:00:00 11.48 C 3.65 g/m*3 11.48 C 0 km/h
416 19-03-2010 07:00:00 12.06 C 4 g/m*3 12.06 C 0 km/h
417 19-03-2010 08:00:00 12.84 C 4.49 g/m*3 12.84 C 0 km/h
418 19-03-2010 09:00:00 13.56 C 4.88 g/m*3 13.56 C 0 km/h
419 19-03-2010 10:00:00 14.82 C 5.15 g/m*3 14.82 C 0 km/h
420 19-03-2010 11:00:00 16.16 C 5.31 g/m*3 16.16 C 0 km/h
421 19-03-2010 12:00:00 18.32 C 5.42 g/m*3 18.32 C 0 km/h
422 19-03-2010 13:00:00 18.88 C 5.31 g/m*3 18.88 C 0 km/h
423 19-03-2010 14:00:00 20.28 C 5.02 g/m*3 20.28 C 0 km/h
424 19-03-2010 15:00:00 20.84 C 4.65 g/m*3 20.84 C 0 km/h
425 19-03-2010 16:00:00 20.24 C 4.87 g/m*3 20.24 C 0 km/h
Sensor: Nr:Datum:Temp:Abs-Feuchte:Windchill:Wind:
Aussen-T/F 426 19-03-2010 17:00:00 18.84 C 5.17 g/m*3 18.84 C 0 km/h
427 19-03-2010 18:00:00 17.56 C 5.48 g/m*3 17.56 C 0 km/h
428 19-03-2010 19:00:00 16.02 C 5.62 g/m*3 16.02 C 0 km/h
429 19-03-2010 20:00:00 15.58 C 5.47 g/m*3 15.58 C 0 km/h
430 19-03-2010 21:00:00 15.4 C 5.49 g/m*3 15.4 C 0 km/h
431 19-03-2010 22:00:00 15.08 C 5.67 g/m*3 15.08 C 0 km/h
432 19-03-2010 23:00:00 14.6 C 5.78 g/m*3 14.6 C 0 km/h
433 20-03-2010 00:00:00 14.18 C 5.88 g/m*3 14.18 C 0 km/h
434 20-03-2010 01:00:00 14.02 C 5.85 g/m*3 14.02 C 0 km/h
435 20-03-2010 02:00:00 14.22 C 6.43 g/m*3 14.22 C 0 km/h
436 20-03-2010 03:00:00 12.38 C 8.25 g/m*3 12.38 C 0 km/h
437 20-03-2010 04:00:00 12.08 C 8.89 g/m*3 12.08 C 0 km/h
438 20-03-2010 05:00:00 12.5 C 9.32 g/m*3 12.5 C 0 km/h
439 20-03-2010 06:00:00 13.08 C 9.19 g/m*3 13.08 C 0 km/h
440 20-03-2010 07:00:00 13.52 C 9.18 g/m*3 13.52 C 0 km/h
441 20-03-2010 08:00:00 14.22 C 9.1 g/m*3 14.22 C 0 km/h
442 20-03-2010 09:00:00 14.64 C 9.31 g/m*3 14.64 C 0 km/h
443 20-03-2010 10:00:00 15.84 C 9.09 g/m*3 15.84 C 0 km/h
444 20-03-2010 11:00:00 15.3 C 9.27 g/m*3 15.3 C 0 km/h
445 20-03-2010 12:00:00 15.4 C 9.12 g/m*3 15.4 C 0 km/h
446 20-03-2010 13:00:00 15.92 C 8.87 g/m*3 15.92 C 0 km/h
447 20-03-2010 14:00:00 15.4 C 8.86 g/m*3 15.4 C 0 km/h
448 20-03-2010 15:00:00 16.86 C 8.21 g/m*3 16.86 C 0 km/h
449 20-03-2010 16:00:00 16.18 C 8.13 g/m*3 16.18 C 0 km/h
450 20-03-2010 17:00:00 14.9 C 8.51 g/m*3 14.9 C 0 km/h
Sensor: Nr:Datum:Temp:Abs-Feuchte:Windchill:Wind:
Aussen-T/F 451 20-03-2010 18:00:00 14.52 C 8.37 g/m*3 14.52 C 0 km/h
452 20-03-2010 19:00:00 14.34 C 8.47 g/m*3 14.34 C 0 km/h
453 20-03-2010 20:00:00 14.56 C 8.36 g/m*3 14.56 C 0 km/h
454 20-03-2010 21:00:00 14.38 C 8.2 g/m*3 14.38 C 0 km/h
455 20-03-2010 22:00:00 14.04 C 8.29 g/m*3 14.04 C 0 km/h
456 20-03-2010 23:00:00 12.56 C 9.16 g/m*3 12.56 C 0 km/h
457 21-03-2010 00:00:00 12.08 C 9.49 g/m*3 12.08 C 0 km/h
458 21-03-2010 01:00:00 11.92 C 9.63 g/m*3 11.92 C 0 km/h
459 21-03-2010 02:00:00 11.7 C 9.71 g/m*3 11.7 C 0 km/h
460 21-03-2010 03:00:00 11.48 C 9.64 g/m*3 11.48 C 0 km/h
461 21-03-2010 04:00:00 11.58 C 9.8 g/m*3 11.58 C 0 km/h
462 21-03-2010 05:00:00 11.38 C 9.74 g/m*3 11.38 C 0 km/h
463 21-03-2010 06:00:00 11.36 C 9.52 g/m*3 11.36 C 0 km/h
464 21-03-2010 07:00:00 11.26 C 9.4 g/m*3 11.26 C 0 km/h
465 21-03-2010 08:00:00 12.1 C 9.74 g/m*3 12.1 C 0 km/h
466 21-03-2010 09:00:00 12.94 C 8.84 g/m*3 12.94 C 0 km/h
467 21-03-2010 10:00:00 12.92 C 8.31 g/m*3 12.92 C 0 km/h
468 21-03-2010 11:00:00 13.04 C 8.12 g/m*3 13.04 C 0 km/h
469 21-03-2010 12:00:00 12.7 C 8.86 g/m*3 12.7 C 0 km/h
470 21-03-2010 13:00:00 12.76 C 7.98 g/m*3 12.76 C 0 km/h
471 21-03-2010 14:00:00 11.86 C 8.28 g/m*3 11.86 C 0 km/h
472 21-03-2010 15:00:00 11.38 C 8.55 g/m*3 11.38 C 0 km/h
473 21-03-2010 16:00:00 10.72 C 8.62 g/m*3 10.72 C 0 km/h
474 21-03-2010 17:00:00 10.66 C 8.35 g/m*3 10.66 C 0 km/h
475 21-03-2010 18:00:00 9.66 C 7.72 g/m*3 9.66 C 0 km/h
Sensor: Nr:Datum:Temp:Abs-Feuchte:Windchill:Wind:
Aussen-T/F 476 21-03-2010 19:00:00 9.46 C 7.74 g/m*3 9.46 C 0 km/h
477 21-03-2010 20:00:00 9.44 C 7.83 g/m*3 9.44 C 0 km/h
478 21-03-2010 21:00:00 9.4 C 7.45 g/m*3 9.4 C 0 km/h
479 21-03-2010 22:00:00 9.22 C 7.13 g/m*3 9.22 C 0 km/h
480 21-03-2010 23:00:00 8.66 C 7.47 g/m*3 8.66 C 0 km/h
481 22-03-2010 00:00:00 8.4 C 7.67 g/m*3 8.4 C 0 km/h
482 22-03-2010 01:00:00 8.26 C 7.68 g/m*3 8.26 C 0 km/h
483 22-03-2010 02:00:00 8.3 C 7.75 g/m*3 8.3 C 0 km/h
484 22-03-2010 03:00:00 8.4 C 7.8 g/m*3 8.4 C 0 km/h
485 22-03-2010 04:00:00 8.28 C 7.74 g/m*3 8.28 C 0 km/h
486 22-03-2010 05:00:00 8.14 C 7.67 g/m*3 8.14 C 0 km/h
487 22-03-2010 06:00:00 8.16 C 7.68 g/m*3 8.16 C 0 km/h
488 22-03-2010 07:00:00 8.32 C 7.82 g/m*3 8.32 C 0 km/h
489 22-03-2010 08:00:00 8.8 C 8.04 g/m*3 8.8 C 0 km/h
490 22-03-2010 09:00:00 9.08 C 7.96 g/m*3 9.08 C 0 km/h
491 22-03-2010 10:00:00 9.68 C 7.9 g/m*3 9.68 C 0 km/h
492 22-03-2010 11:00:00 9.68 C 7.84 g/m*3 9.68 C 0 km/h
493 22-03-2010 12:00:00 10.96 C 7.61 g/m*3 10.96 C 0 km/h
494 22-03-2010 13:00:00 12.24 C 6.77 g/m*3 12.24 C 0 km/h
495 22-03-2010 14:00:00 14.16 C 5.94 g/m*3 14.16 C 0 km/h
496 22-03-2010 15:00:00 14.34 C 5.39 g/m*3 14.34 C 0 km/h
497 22-03-2010 16:00:00 14.72 C 5.24 g/m*3 14.72 C 0 km/h
498 22-03-2010 17:00:00 13.92 C 4.95 g/m*3 13.92 C 0 km/h
499 22-03-2010 18:00:00 12.28 C 5.36 g/m*3 12.28 C 0 km/h
500 22-03-2010 19:00:00 9.78 C 5.74 g/m*3 9.78 C 0 km/h
Sensor: Nr:Datum:Temp:Abs-Feuchte:Windchill:Wind:
Aussen-T/F 501 22-03-2010 20:00:00 8.64 C 6.12 g/m*3 8.64 C 0 km/h
502 22-03-2010 21:00:00 7.54 C 6.08 g/m*3 7.54 C 0 km/h
503 22-03-2010 22:00:00 6.44 C 5.96 g/m*3 6.44 C 0 km/h
504 22-03-2010 23:00:00 5.66 C 5.91 g/m*3 5.66 C 0 km/h
505 23-03-2010 00:00:00 4.92 C 5.79 g/m*3 4.92 C 0 km/h
506 23-03-2010 01:00:00 4.26 C 5.67 g/m*3 4.26 C 0 km/h
507 23-03-2010 02:00:00 3.74 C 5.57 g/m*3 3.74 C 0 km/h
508 23-03-2010 03:00:00 3.18 C 5.49 g/m*3 3.18 C 0 km/h
509 23-03-2010 04:00:00 2.62 C 5.31 g/m*3 2.62 C 0 km/h
510 23-03-2010 05:00:00 2.28 C 5.23 g/m*3 2.28 C 0 km/h
511 23-03-2010 06:00:00 2.3 C 5.29 g/m*3 2.3 C 0 km/h
512 23-03-2010 07:00:00 2.86 C 5.54 g/m*3 2.86 C 0 km/h
513 23-03-2010 08:00:00 3.96 C 5.91 g/m*3 3.96 C 0 km/h
514 23-03-2010 09:00:00 6 C 6.66 g/m*3 6 C 0 km/h
515 23-03-2010 10:00:00 8.86 C 6.8 g/m*3 8.86 C 0 km/h
516 23-03-2010 11:00:00 11.68 C 6.33 g/m*3 11.68 C 0 km/h
517 23-03-2010 12:00:00 13.86 C 5.79 g/m*3 13.86 C 0 km/h
518 23-03-2010 13:00:00 15.52 C 5.32 g/m*3 15.52 C 0 km/h
519 23-03-2010 14:00:00 16.78 C 5.31 g/m*3 16.78 C 0 km/h
520 23-03-2010 15:00:00 17.22 C 5.07 g/m*3 17.22 C 0 km/h
521 23-03-2010 16:00:00 16.54 C 5.18 g/m*3 16.54 C 0 km/h
522 23-03-2010 17:00:00 15.7 C 5.38 g/m*3 15.7 C 0 km/h
523 23-03-2010 18:00:00 13.8 C 5.91 g/m*3 13.8 C 0 km/h
524 23-03-2010 19:00:00 11.44 C 6.24 g/m*3 11.44 C 0 km/h
525 23-03-2010 20:00:00 10.38 C 6.1 g/m*3 10.38 C 0 km/h
Sensor: Nr:Datum:Temp:Abs-Feuchte:Windchill:Wind:
Aussen-T/F 526 23-03-2010 21:00:00 9.66 C 6.2 g/m*3 9.66 C 0 km/h
527 23-03-2010 22:00:00 8.8 C 6.27 g/m*3 8.8 C 0 km/h
528 23-03-2010 23:00:00 8.2 C 6.23 g/m*3 8.2 C 0 km/h
529 24-03-2010 00:00:00 7.7 C 6.23 g/m*3 7.7 C 0 km/h
530 24-03-2010 01:00:00 7.26 C 6.16 g/m*3 7.26 C 0 km/h
531 24-03-2010 02:00:00 6.54 C 6.08 g/m*3 6.54 C 0 km/h
532 24-03-2010 03:00:00 5.88 C 5.96 g/m*3 5.88 C 0 km/h
533 24-03-2010 04:00:00 5.3 C 5.85 g/m*3 5.3 C 0 km/h
534 24-03-2010 05:00:00 4.82 C 5.8 g/m*3 4.82 C 0 km/h
535 24-03-2010 06:00:00 4.36 C 5.7 g/m*3 4.36 C 0 km/h
536 24-03-2010 07:00:00 4.7 C 5.92 g/m*3 4.7 C 0 km/h
537 24-03-2010 08:00:00 5.58 C 6.13 g/m*3 5.58 C 0 km/h
538 24-03-2010 09:00:00 7.24 C 6.47 g/m*3 7.24 C 0 km/h
539 24-03-2010 10:00:00 10.94 C 6.72 g/m*3 10.94 C 0 km/h
540 24-03-2010 11:00:00 14.34 C 5.47 g/m*3 14.34 C 0 km/h
541 24-03-2010 12:00:00 17.2 C 5.15 g/m*3 17.2 C 0 km/h
542 24-03-2010 13:00:00 19.48 C 4.96 g/m*3 19.48 C 0 km/h
543 24-03-2010 14:00:00 21.46 C 4.52 g/m*3 21.46 C 0 km/h
544 24-03-2010 15:00:00 22.24 C 4.37 g/m*3 22.24 C 0 km/h
545 24-03-2010 16:00:00 20.84 C 4.79 g/m*3 20.84 C 0 km/h
546 24-03-2010 17:00:00 19.76 C 5.28 g/m*3 19.76 C 0 km/h
547 24-03-2010 18:00:00 17.22 C 5.48 g/m*3 17.22 C 0 km/h
548 24-03-2010 19:00:00 14.7 C 5.54 g/m*3 14.7 C 0 km/h
549 24-03-2010 20:00:00 13.8 C 5.58 g/m*3 13.8 C 0 km/h
550 24-03-2010 21:00:00 13.08 C 5.63 g/m*3 13.08 C 0 km/h
Sensor: Nr:Datum:Temp:Abs-Feuchte:Windchill:Wind:
Aussen-T/F 551 24-03-2010 22:00:00 12.42 C 5.71 g/m*3 12.42 C 0 km/h
552 24-03-2010 23:00:00 11.08 C 6.08 g/m*3 11.08 C 0 km/h
553 25-03-2010 00:00:00 10.26 C 6.13 g/m*3 10.26 C 0 km/h
554 25-03-2010 01:00:00 9.16 C 6.11 g/m*3 9.16 C 0 km/h
555 25-03-2010 02:00:00 8.72 C 6.22 g/m*3 8.72 C 0 km/h
556 25-03-2010 03:00:00 8.34 C 6.25 g/m*3 8.34 C 0 km/h
557 25-03-2010 04:00:00 7.74 C 6.36 g/m*3 7.74 C 0 km/h
558 25-03-2010 05:00:00 7.36 C 6.39 g/m*3 7.36 C 0 km/h
559 25-03-2010 06:00:00 7.44 C 6.47 g/m*3 7.44 C 0 km/h
560 25-03-2010 07:00:00 7.88 C 6.71 g/m*3 7.88 C 0 km/h
561 25-03-2010 08:00:00 8.34 C 6.98 g/m*3 8.34 C 0 km/h
562 25-03-2010 09:00:00 10.86 C 7.42 g/m*3 10.86 C 0 km/h
563 25-03-2010 10:00:00 13.38 C 7.22 g/m*3 13.38 C 0 km/h
564 25-03-2010 11:00:00 17.54 C 6.16 g/m*3 17.54 C 0 km/h
565 25-03-2010 12:00:00 20.32 C 4.68 g/m*3 20.32 C 0 km/h
566 25-03-2010 13:00:00 22.58 C 4.09 g/m*3 22.58 C 0 km/h
567 25-03-2010 14:00:00 23.3 C 4.18 g/m*3 23.3 C 0 km/h
568 25-03-2010 15:00:00 23.34 C 4.19 g/m*3 23.34 C 0 km/h
569 25-03-2010 16:00:00 23.2 C 4.28 g/m*3 23.2 C 0 km/h
570 25-03-2010 17:00:00 20.52 C 4.88 g/m*3 20.52 C 0 km/h
571 25-03-2010 18:00:00 19.12 C 5.58 g/m*3 19.12 C 0 km/h
572 25-03-2010 19:00:00 17.3 C 5.77 g/m*3 17.3 C 0 km/h
573 25-03-2010 20:00:00 15.5 C 5.87 g/m*3 15.5 C 0 km/h
574 25-03-2010 21:00:00 14.4 C 6.08 g/m*3 14.4 C 0 km/h
575 25-03-2010 22:00:00 13.22 C 6.3 g/m*3 13.22 C 0 km/h
Sensor: Nr:Datum:Temp:Abs-Feuchte:Windchill:Wind:
Aussen-T/F 576 25-03-2010 23:00:00 12.68 C 6.49 g/m*3 12.68 C 0 km/h
577 26-03-2010 00:00:00 12.32 C 6.65 g/m*3 12.32 C 0 km/h
578 26-03-2010 01:00:00 12.76 C 6.59 g/m*3 12.76 C 0 km/h
579 26-03-2010 02:00:00 12.52 C 6.6 g/m*3 12.52 C 0 km/h
580 26-03-2010 03:00:00 11.82 C 6.85 g/m*3 11.82 C 0 km/h
581 26-03-2010 04:00:00 11.28 C 6.91 g/m*3 11.28 C 0 km/h
582 26-03-2010 05:00:00 10.9 C 6.9 g/m*3 10.9 C 0 km/h
583 26-03-2010 06:00:00 10.38 C 6.93 g/m*3 10.38 C 0 km/h
584 26-03-2010 07:00:00 10.68 C 7.14 g/m*3 10.68 C 0 km/h
585 26-03-2010 08:00:00 11.84 C 7.2 g/m*3 11.84 C 0 km/h
586 26-03-2010 09:00:00 13.18 C 7.2 g/m*3 13.18 C 0 km/h
587 26-03-2010 10:00:00 13.66 C 6.99 g/m*3 13.66 C 0 km/h
588 26-03-2010 11:00:00 10.92 C 6.93 g/m*3 10.92 C 0 km/h
589 26-03-2010 12:00:00 7.9 C 7.11 g/m*3 7.9 C 0 km/h
590 26-03-2010 13:00:00 7.58 C 7.24 g/m*3 7.58 C 0 km/h
591 26-03-2010 14:00:00 7.74 C 7.33 g/m*3 7.74 C 0 km/h
592 26-03-2010 15:00:00 8.26 C 7.45 g/m*3 8.26 C 0 km/h
593 26-03-2010 16:00:00 8.54 C 7.53 g/m*3 8.54 C 0 km/h
594 26-03-2010 17:00:00 8.6 C 7.24 g/m*3 8.6 C 0 km/h
595 26-03-2010 18:00:00 8.64 C 7.05 g/m*3 8.64 C 0 km/h
596 26-03-2010 19:00:00 8.42 C 7.05 g/m*3 8.42 C 0 km/h
597 26-03-2010 20:00:00 8.58 C 6.87 g/m*3 8.58 C 0 km/h
598 26-03-2010 21:00:00 8.4 C 6.21 g/m*3 8.4 C 0 km/h
599 26-03-2010 22:00:00 8.14 C 6.36 g/m*3 8.14 C 0 km/h
600 26-03-2010 23:00:00 7.72 C 6.48 g/m*3 7.72 C 0 km/h
Sensor: Nr:Datum:Temp:Abs-Feuchte:Windchill:Wind:
Aussen-T/F 601 27-03-2010 00:00:00 7.94 C 6.46 g/m*3 7.94 C 0 km/h
602 27-03-2010 01:00:00 8.46 C 6.34 g/m*3 8.46 C 0 km/h
603 27-03-2010 02:00:00 8.22 C 6.07 g/m*3 8.22 C 0 km/h
604 27-03-2010 03:00:00 8.1 C 6.14 g/m*3 8.1 C 0 km/h
605 27-03-2010 04:00:00 8.18 C 6.01 g/m*3 8.18 C 0 km/h
606 27-03-2010 05:00:00 8.06 C 5.94 g/m*3 8.06 C 0 km/h
607 27-03-2010 06:00:00 8.08 C 5.73 g/m*3 8.08 C 0 km/h
608 27-03-2010 07:00:00 8.44 C 5.68 g/m*3 8.44 C 0 km/h
609 27-03-2010 08:00:00 9 C 5.73 g/m*3 9 C 0 km/h
610 27-03-2010 09:00:00 9.74 C 5.6 g/m*3 9.74 C 0 km/h
611 27-03-2010 10:00:00 10.26 C 5.37 g/m*3 10.26 C 0 km/h
612 27-03-2010 11:00:00 11.52 C 4.92 g/m*3 11.52 C 0 km/h
613 27-03-2010 12:00:00 11.6 C 5.13 g/m*3 11.6 C 0 km/h
614 27-03-2010 13:00:00 11.36 C 5.57 g/m*3 11.36 C 0 km/h
615 27-03-2010 14:00:00 11.2 C 5.05 g/m*3 11.2 C 0 km/h
616 27-03-2010 15:00:00 11.76 C 4.87 g/m*3 11.76 C 0 km/h
617 27-03-2010 16:00:00 10.84 C 5.03 g/m*3 10.84 C 0 km/h
618 27-03-2010 17:00:00 11.38 C 5.13 g/m*3 11.38 C 0 km/h
619 27-03-2010 18:00:00 10.92 C 5.12 g/m*3 10.92 C 0 km/h
620 27-03-2010 19:00:00 8.96 C 5.36 g/m*3 8.96 C 0 km/h
621 27-03-2010 20:00:00 7.92 C 5.68 g/m*3 7.92 C 0 km/h
622 27-03-2010 21:00:00 7.26 C 5.97 g/m*3 7.26 C 0 km/h
623 27-03-2010 22:00:00 7.26 C 6.19 g/m*3 7.26 C 0 km/h
624 27-03-2010 23:00:00 7.78 C 6.02 g/m*3 7.78 C 0 km/h
625 28-03-2010 00:00:00 7.6 C 6.04 g/m*3 7.6 C 0 km/h
Sensor: Nr:Datum:Temp:Abs-Feuchte:Windchill:Wind:
Aussen-T/F 626 28-03-2010 01:00:00 8.2 C 5.91 g/m*3 8.2 C 0 km/h
627 28-03-2010 02:00:00 8.18 C 5.96 g/m*3 8.18 C 0 km/h
628 28-03-2010 04:00:00 8.18 C 6.07 g/m*3 8.18 C 0 km/h
629 28-03-2010 05:00:00 8.14 C 6.21 g/m*3 8.14 C 0 km/h
630 28-03-2010 06:00:00 8.34 C 6.32 g/m*3 8.34 C 0 km/h
631 28-03-2010 07:00:00 8.22 C 6.19 g/m*3 8.22 C 0 km/h
632 28-03-2010 08:00:00 8.86 C 6.17 g/m*3 8.86 C 0 km/h
633 28-03-2010 09:00:00 9.74 C 5.93 g/m*3 9.74 C 0 km/h
634 28-03-2010 10:00:00 10.44 C 5.78 g/m*3 10.44 C 0 km/h
635 28-03-2010 11:00:00 11.2 C 5.47 g/m*3 11.2 C 0 km/h
636 28-03-2010 12:00:00 11.44 C 5.52 g/m*3 11.44 C 0 km/h
637 28-03-2010 13:00:00 11.8 C 5.33 g/m*3 11.8 C 0 km/h
638 28-03-2010 14:00:00 11.02 C 5.77 g/m*3 11.02 C 0 km/h
639 28-03-2010 15:00:00 11.98 C 6.51 g/m*3 11.98 C 0 km/h
640 28-03-2010 16:00:00 12.76 C 5.45 g/m*3 12.76 C 0 km/h
641 28-03-2010 17:00:00 11.5 C 6.8 g/m*3 11.5 C 0 km/h
642 28-03-2010 18:00:00 11.42 C 5.94 g/m*3 11.42 C 0 km/h
643 28-03-2010 19:00:00 10.7 C 6.42 g/m*3 10.7 C 0 km/h
644 28-03-2010 20:00:00 9.86 C 6.93 g/m*3 9.86 C 0 km/h
645 28-03-2010 21:00:00 9.86 C 6.85 g/m*3 9.86 C 0 km/h
646 28-03-2010 22:00:00 9.52 C 6.84 g/m*3 9.52 C 0 km/h
647 28-03-2010 23:00:00 9.54 C 6.9 g/m*3 9.54 C 0 km/h
648 29-03-2010 00:00:00 9.88 C 6.84 g/m*3 9.88 C 0 km/h
649 29-03-2010 01:00:00 9.66 C 7.14 g/m*3 9.66 C 0 km/h
650 29-03-2010 02:00:00 9.34 C 7.44 g/m*3 9.34 C 0 km/h
Sensor: Nr:Datum:Temp:Abs-Feuchte:Windchill:Wind:
Aussen-T/F 651 29-03-2010 03:00:00 9.94 C 7.94 g/m*3 9.94 C 0 km/h
652 29-03-2010 04:00:00 11.28 C 7.97 g/m*3 11.28 C 0 km/h
653 29-03-2010 05:00:00 11.48 C 8.01 g/m*3 11.48 C 0 km/h
654 29-03-2010 06:00:00 11.46 C 8.02 g/m*3 11.46 C 0 km/h
655 29-03-2010 07:00:00 10.8 C 8.36 g/m*3 10.8 C 0 km/h
656 29-03-2010 08:00:00 11.14 C 8.32 g/m*3 11.14 C 0 km/h
657 29-03-2010 09:00:00 12 C 7.8 g/m*3 12 C 0 km/h
658 29-03-2010 10:00:00 12.64 C 7.83 g/m*3 12.64 C 0 km/h
659 29-03-2010 11:00:00 13.56 C 7.84 g/m*3 13.56 C 0 km/h
660 29-03-2010 12:00:00 14.9 C 7.52 g/m*3 14.9 C 0 km/h
661 29-03-2010 13:00:00 14.58 C 7.47 g/m*3 14.58 C 0 km/h
662 29-03-2010 14:00:00 13.78 C 8.38 g/m*3 13.78 C 0 km/h
663 29-03-2010 15:00:00 12.98 C 8.54 g/m*3 12.98 C 0 km/h
664 29-03-2010 16:00:00 14.06 C 7.94 g/m*3 14.06 C 0 km/h
665 29-03-2010 17:00:00 13.14 C 9.24 g/m*3 13.14 C 0 km/h
666 29-03-2010 18:00:00 14.66 C 9.02 g/m*3 14.66 C 0 km/h
667 29-03-2010 19:00:00 12.96 C 8.67 g/m*3 12.96 C 0 km/h
668 29-03-2010 20:00:00 10.7 C 8.17 g/m*3 10.7 C 0 km/h
669 29-03-2010 21:00:00 10.26 C 8.02 g/m*3 10.26 C 0 km/h
670 29-03-2010 22:00:00 9.92 C 7.93 g/m*3 9.92 C 0 km/h
671 29-03-2010 23:00:00 10.04 C 7.82 g/m*3 10.04 C 0 km/h

Maximal/Minimal-Werte vom 23.02.2003 - 30.09.2020

Sensor Min Max Avg
Temp
(Aussen-T/F)
-16.4 °C
20-12-2009  01:30:01
40.4 °C
25-07-2019  16:20:00
11.32 °C

Die Daten stammen von einer Davis Vantage Pro 2 Wetter-Station und werden unter Linux mit der Software wview2wettercgi und aufbereitet. Alle Angaben erfolgen ohne Gewähr für ihre Vollständigkeit oder Richtigkeit.
Kontakt: Rainer Krienke krienke@uni-koblenz.de . Meine Webseiten an der Uni Koblenz oder privat.
Version: $Revision: 0.78 $